sensor_id;sensor_type;location;lat;lon;timestamp;P1;durP1;ratioP1;P2;durP2;ratioP2
46084;SDS011;31823;47.032;8.310;2022-10-16T00:00:34;2.60;;;1.80;;
46084;SDS011;31823;47.032;8.310;2022-10-16T00:03:02;3.80;;;1.73;;
46084;SDS011;31823;47.032;8.310;2022-10-16T00:05:28;6.65;;;2.00;;
46084;SDS011;31823;47.032;8.310;2022-10-16T00:07:54;5.88;;;2.20;;
46084;SDS011;31823;47.032;8.310;2022-10-16T00:10:20;2.30;;;2.05;;
46084;SDS011;31823;47.032;8.310;2022-10-16T00:12:46;6.28;;;2.00;;
46084;SDS011;31823;47.032;8.310;2022-10-16T00:15:12;4.05;;;1.92;;
46084;SDS011;31823;47.032;8.310;2022-10-16T00:17:38;6.82;;;1.80;;
46084;SDS011;31823;47.032;8.310;2022-10-16T00:20:04;7.25;;;1.83;;
46084;SDS011;31823;47.032;8.310;2022-10-16T00:22:30;9.75;;;2.30;;
46084;SDS011;31823;47.032;8.310;2022-10-16T00:24:56;10.30;;;2.45;;
46084;SDS011;31823;47.032;8.310;2022-10-16T00:27:21;8.82;;;1.65;;
46084;SDS011;31823;47.032;8.310;2022-10-16T00:29:51;6.72;;;2.80;;
46084;SDS011;31823;47.032;8.310;2022-10-16T00:32:17;9.20;;;2.67;;
46084;SDS011;31823;47.032;8.310;2022-10-16T00:34:44;5.90;;;2.50;;
46084;SDS011;31823;47.032;8.310;2022-10-16T00:37:10;7.82;;;2.10;;
46084;SDS011;31823;47.032;8.310;2022-10-16T00:39:36;5.85;;;2.17;;
46084;SDS011;31823;47.032;8.310;2022-10-16T00:42:02;10.80;;;3.03;;
46084;SDS011;31823;47.032;8.310;2022-10-16T00:47:13;9.18;;;2.50;;
46084;SDS011;31823;47.032;8.310;2022-10-16T00:49:43;3.17;;;1.90;;
46084;SDS011;31823;47.032;8.310;2022-10-16T00:52:11;5.68;;;2.03;;
46084;SDS011;31823;47.032;8.310;2022-10-16T00:54:38;6.90;;;2.17;;
46084;SDS011;31823;47.032;8.310;2022-10-16T00:57:04;4.88;;;2.40;;
46084;SDS011;31823;47.032;8.310;2022-10-16T00:59:38;5.55;;;2.17;;
46084;SDS011;31823;47.032;8.310;2022-10-16T01:02:06;9.00;;;2.20;;
46084;SDS011;31823;47.032;8.310;2022-10-16T01:04:38;3.42;;;2.30;;
46084;SDS011;31823;47.032;8.310;2022-10-16T01:09:45;5.50;;;2.38;;
46084;SDS011;31823;47.032;8.310;2022-10-16T01:28:25;5.65;;;2.80;;
46084;SDS011;31823;47.032;8.310;2022-10-16T01:30:58;6.05;;;2.10;;
46084;SDS011;31823;47.032;8.310;2022-10-16T01:33:28;2.85;;;1.88;;
46084;SDS011;31823;47.032;8.310;2022-10-16T01:36:07;8.00;;;2.08;;
46084;SDS011;31823;47.032;8.310;2022-10-16T01:38:41;3.08;;;2.03;;
46084;SDS011;31823;47.032;8.310;2022-10-16T01:41:32;6.70;;;2.25;;
46084;SDS011;31823;47.032;8.310;2022-10-16T01:44:01;6.18;;;2.10;;
46084;SDS011;31823;47.032;8.310;2022-10-16T01:46:30;4.85;;;1.90;;
46084;SDS011;31823;47.032;8.310;2022-10-16T01:48:57;5.00;;;1.92;;
46084;SDS011;31823;47.032;8.310;2022-10-16T01:51:26;6.35;;;1.90;;
46084;SDS011;31823;47.032;8.310;2022-10-16T01:53:55;5.30;;;2.25;;
46084;SDS011;31823;47.032;8.310;2022-10-16T01:56:24;2.97;;;2.00;;
46084;SDS011;31823;47.032;8.310;2022-10-16T01:58:58;2.75;;;1.80;;
46084;SDS011;31823;47.032;8.310;2022-10-16T02:01:28;4.88;;;1.60;;
46084;SDS011;31823;47.032;8.310;2022-10-16T02:03:58;6.85;;;2.15;;
46084;SDS011;31823;47.032;8.310;2022-10-16T02:06:28;5.90;;;1.95;;
46084;SDS011;31823;47.032;8.310;2022-10-16T02:08:54;7.57;;;1.90;;
46084;SDS011;31823;47.032;8.310;2022-10-16T02:11:20;3.17;;;1.58;;
46084;SDS011;31823;47.032;8.310;2022-10-16T02:13:57;6.28;;;1.83;;
46084;SDS011;31823;47.032;8.310;2022-10-16T02:16:32;5.05;;;1.80;;
46084;SDS011;31823;47.032;8.310;2022-10-16T02:19:00;8.40;;;1.90;;
46084;SDS011;31823;47.032;8.310;2022-10-16T02:21:26;9.50;;;2.83;;
46084;SDS011;31823;47.032;8.310;2022-10-16T02:26:56;5.45;;;1.77;;
46084;SDS011;31823;47.032;8.310;2022-10-16T02:29:28;7.43;;;1.90;;
46084;SDS011;31823;47.032;8.310;2022-10-16T02:31:59;2.92;;;1.65;;
46084;SDS011;31823;47.032;8.310;2022-10-16T02:34:29;9.23;;;2.10;;
46084;SDS011;31823;47.032;8.310;2022-10-16T02:36:58;1.85;;;1.50;;
46084;SDS011;31823;47.032;8.310;2022-10-16T02:39:27;12.35;;;2.00;;
46084;SDS011;31823;47.032;8.310;2022-10-16T02:41:53;9.00;;;1.83;;
46084;SDS011;31823;47.032;8.310;2022-10-16T02:44:19;2.65;;;1.80;;
46084;SDS011;31823;47.032;8.310;2022-10-16T02:46:45;5.80;;;1.52;;
46084;SDS011;31823;47.032;8.310;2022-10-16T02:49:11;7.20;;;1.58;;
46084;SDS011;31823;47.032;8.310;2022-10-16T02:51:36;10.75;;;2.00;;
46084;SDS011;31823;47.032;8.310;2022-10-16T02:54:02;6.78;;;1.98;;
46084;SDS011;31823;47.032;8.310;2022-10-16T02:56:28;10.68;;;2.97;;
46084;SDS011;31823;47.032;8.310;2022-10-16T02:58:55;7.10;;;2.17;;
46084;SDS011;31823;47.032;8.310;2022-10-16T03:01:20;8.18;;;1.88;;
46084;SDS011;31823;47.032;8.310;2022-10-16T03:03:46;3.78;;;1.83;;
46084;SDS011;31823;47.032;8.310;2022-10-16T03:06:12;3.35;;;1.50;;
46084;SDS011;31823;47.032;8.310;2022-10-16T03:08:38;4.35;;;1.80;;
46084;SDS011;31823;47.032;8.310;2022-10-16T03:11:04;6.28;;;1.80;;
46084;SDS011;31823;47.032;8.310;2022-10-16T03:13:30;17.63;;;2.67;;
46084;SDS011;31823;47.032;8.310;2022-10-16T03:15:55;6.47;;;1.98;;
46084;SDS011;31823;47.032;8.310;2022-10-16T03:18:21;4.15;;;1.75;;
46084;SDS011;31823;47.032;8.310;2022-10-16T03:20:47;6.85;;;2.00;;
46084;SDS011;31823;47.032;8.310;2022-10-16T03:23:12;5.15;;;1.95;;
46084;SDS011;31823;47.032;8.310;2022-10-16T03:25:38;6.15;;;1.77;;
46084;SDS011;31823;47.032;8.310;2022-10-16T03:28:04;3.90;;;1.80;;
46084;SDS011;31823;47.032;8.310;2022-10-16T03:30:30;3.60;;;2.47;;
46084;SDS011;31823;47.032;8.310;2022-10-16T03:32:55;6.30;;;2.15;;
46084;SDS011;31823;47.032;8.310;2022-10-16T03:35:21;8.65;;;2.20;;
46084;SDS011;31823;47.032;8.310;2022-10-16T03:37:48;7.70;;;2.45;;
46084;SDS011;31823;47.032;8.310;2022-10-16T03:40:13;6.95;;;2.60;;
46084;SDS011;31823;47.032;8.310;2022-10-16T03:42:40;4.22;;;1.95;;
46084;SDS011;31823;47.032;8.310;2022-10-16T03:45:07;2.00;;;1.80;;
46084;SDS011;31823;47.032;8.310;2022-10-16T03:47:33;7.68;;;2.28;;
46084;SDS011;31823;47.032;8.310;2022-10-16T03:49:59;5.57;;;2.35;;
46084;SDS011;31823;47.032;8.310;2022-10-16T03:52:25;5.22;;;2.20;;
46084;SDS011;31823;47.032;8.310;2022-10-16T03:54:51;2.25;;;2.00;;
46084;SDS011;31823;47.032;8.310;2022-10-16T03:57:17;8.63;;;2.63;;
46084;SDS011;31823;47.032;8.310;2022-10-16T03:59:42;2.58;;;2.00;;
46084;SDS011;31823;47.032;8.310;2022-10-16T04:02:08;7.00;;;2.10;;
46084;SDS011;31823;47.032;8.310;2022-10-16T04:04:34;4.75;;;2.30;;
46084;SDS011;31823;47.032;8.310;2022-10-16T04:07:00;7.05;;;2.40;;
46084;SDS011;31823;47.032;8.310;2022-10-16T04:09:25;6.05;;;1.90;;
46084;SDS011;31823;47.032;8.310;2022-10-16T04:11:51;15.30;;;1.90;;
46084;SDS011;31823;47.032;8.310;2022-10-16T04:14:17;5.75;;;1.95;;
46084;SDS011;31823;47.032;8.310;2022-10-16T04:16:42;5.90;;;2.20;;
46084;SDS011;31823;47.032;8.310;2022-10-16T04:19:09;5.22;;;1.80;;
46084;SDS011;31823;47.032;8.310;2022-10-16T04:21:35;5.80;;;1.70;;
46084;SDS011;31823;47.032;8.310;2022-10-16T04:24:01;5.78;;;1.92;;
46084;SDS011;31823;47.032;8.310;2022-10-16T04:26:27;3.03;;;1.88;;
46084;SDS011;31823;47.032;8.310;2022-10-16T04:28:52;3.78;;;1.98;;
46084;SDS011;31823;47.032;8.310;2022-10-16T04:31:18;11.40;;;2.78;;
46084;SDS011;31823;47.032;8.310;2022-10-16T04:33:44;4.80;;;1.90;;
46084;SDS011;31823;47.032;8.310;2022-10-16T04:36:10;7.43;;;1.95;;
46084;SDS011;31823;47.032;8.310;2022-10-16T04:38:36;9.43;;;1.75;;
46084;SDS011;31823;47.032;8.310;2022-10-16T04:41:02;6.90;;;1.70;;
46084;SDS011;31823;47.032;8.310;2022-10-16T04:43:28;6.03;;;1.90;;
46084;SDS011;31823;47.032;8.310;2022-10-16T04:45:54;7.80;;;1.73;;
46084;SDS011;31823;47.032;8.310;2022-10-16T04:48:21;8.13;;;1.60;;
46084;SDS011;31823;47.032;8.310;2022-10-16T04:50:47;5.82;;;1.65;;
46084;SDS011;31823;47.032;8.310;2022-10-16T04:53:12;3.33;;;1.85;;
46084;SDS011;31823;47.032;8.310;2022-10-16T04:55:38;3.40;;;1.45;;
46084;SDS011;31823;47.032;8.310;2022-10-16T04:58:06;8.55;;;1.75;;
46084;SDS011;31823;47.032;8.310;2022-10-16T05:00:31;11.13;;;2.20;;
46084;SDS011;31823;47.032;8.310;2022-10-16T05:02:57;9.10;;;1.88;;
46084;SDS011;31823;47.032;8.310;2022-10-16T05:05:24;9.30;;;1.88;;
46084;SDS011;31823;47.032;8.310;2022-10-16T05:07:50;3.90;;;1.50;;
46084;SDS011;31823;47.032;8.310;2022-10-16T05:10:16;2.45;;;1.50;;
46084;SDS011;31823;47.032;8.310;2022-10-16T05:12:41;3.45;;;1.63;;
46084;SDS011;31823;47.032;8.310;2022-10-16T05:15:07;7.75;;;1.40;;
46084;SDS011;31823;47.032;8.310;2022-10-16T05:17:33;4.22;;;1.50;;
46084;SDS011;31823;47.032;8.310;2022-10-16T05:19:59;7.53;;;1.48;;
46084;SDS011;31823;47.032;8.310;2022-10-16T05:22:24;3.47;;;1.67;;
46084;SDS011;31823;47.032;8.310;2022-10-16T05:24:50;6.55;;;1.80;;
46084;SDS011;31823;47.032;8.310;2022-10-16T05:27:16;3.92;;;1.50;;
46084;SDS011;31823;47.032;8.310;2022-10-16T05:29:47;2.67;;;1.73;;
46084;SDS011;31823;47.032;8.310;2022-10-16T05:32:14;6.00;;;1.80;;
46084;SDS011;31823;47.032;8.310;2022-10-16T05:34:40;2.08;;;1.50;;
46084;SDS011;31823;47.032;8.310;2022-10-16T05:37:06;6.05;;;1.77;;
46084;SDS011;31823;47.032;8.310;2022-10-16T05:39:32;4.53;;;2.95;;
46084;SDS011;31823;47.032;8.310;2022-10-16T05:41:58;4.70;;;2.00;;
46084;SDS011;31823;47.032;8.310;2022-10-16T05:44:24;3.10;;;1.70;;
46084;SDS011;31823;47.032;8.310;2022-10-16T05:46:49;5.40;;;1.92;;
46084;SDS011;31823;47.032;8.310;2022-10-16T05:49:15;6.38;;;1.80;;
46084;SDS011;31823;47.032;8.310;2022-10-16T05:51:41;4.63;;;2.47;;
46084;SDS011;31823;47.032;8.310;2022-10-16T05:54:06;9.32;;;1.75;;
46084;SDS011;31823;47.032;8.310;2022-10-16T05:56:33;3.08;;;2.00;;
46084;SDS011;31823;47.032;8.310;2022-10-16T05:58:58;3.03;;;1.88;;
46084;SDS011;31823;47.032;8.310;2022-10-16T06:01:24;4.63;;;1.63;;
46084;SDS011;31823;47.032;8.310;2022-10-16T06:03:50;1.60;;;1.50;;
46084;SDS011;31823;47.032;8.310;2022-10-16T06:06:18;3.53;;;1.75;;
46084;SDS011;31823;47.032;8.310;2022-10-16T06:08:45;4.72;;;2.03;;
46084;SDS011;31823;47.032;8.310;2022-10-16T06:11:13;8.40;;;1.58;;
46084;SDS011;31823;47.032;8.310;2022-10-16T06:13:41;6.00;;;1.80;;
46084;SDS011;31823;47.032;8.310;2022-10-16T06:16:07;1.90;;;1.70;;
46084;SDS011;31823;47.032;8.310;2022-10-16T06:18:35;8.82;;;1.90;;
46084;SDS011;31823;47.032;8.310;2022-10-16T06:21:06;4.45;;;2.17;;
46084;SDS011;31823;47.032;8.310;2022-10-16T06:23:33;4.85;;;2.03;;
46084;SDS011;31823;47.032;8.310;2022-10-16T06:26:08;6.05;;;2.70;;
46084;SDS011;31823;47.032;8.310;2022-10-16T06:28:38;8.05;;;2.20;;
46084;SDS011;31823;47.032;8.310;2022-10-16T06:31:04;2.88;;;1.90;;
46084;SDS011;31823;47.032;8.310;2022-10-16T06:33:32;10.70;;;2.25;;
46084;SDS011;31823;47.032;8.310;2022-10-16T06:36:05;2.97;;;2.33;;
46084;SDS011;31823;47.032;8.310;2022-10-16T06:38:33;3.28;;;2.10;;
46084;SDS011;31823;47.032;8.310;2022-10-16T06:40:59;5.75;;;3.03;;
46084;SDS011;31823;47.032;8.310;2022-10-16T06:43:25;3.63;;;2.15;;
46084;SDS011;31823;47.032;8.310;2022-10-16T06:45:51;5.72;;;2.38;;
46084;SDS011;31823;47.032;8.310;2022-10-16T06:48:17;4.15;;;1.85;;
46084;SDS011;31823;47.032;8.310;2022-10-16T06:50:43;6.03;;;2.10;;
46084;SDS011;31823;47.032;8.310;2022-10-16T06:53:09;4.18;;;2.22;;
46084;SDS011;31823;47.032;8.310;2022-10-16T06:55:34;7.57;;;2.08;;
46084;SDS011;31823;47.032;8.310;2022-10-16T06:58:00;15.27;;;2.13;;
46084;SDS011;31823;47.032;8.310;2022-10-16T07:00:25;7.13;;;1.70;;
46084;SDS011;31823;47.032;8.310;2022-10-16T07:02:51;1.50;;;1.40;;
46084;SDS011;31823;47.032;8.310;2022-10-16T07:05:17;4.30;;;2.10;;
46084;SDS011;31823;47.032;8.310;2022-10-16T07:07:42;3.38;;;2.20;;
46084;SDS011;31823;47.032;8.310;2022-10-16T07:10:08;7.50;;;1.90;;
46084;SDS011;31823;47.032;8.310;2022-10-16T07:12:34;4.07;;;1.80;;
46084;SDS011;31823;47.032;8.310;2022-10-16T07:14:59;2.63;;;1.75;;
46084;SDS011;31823;47.032;8.310;2022-10-16T07:17:25;5.05;;;1.80;;
46084;SDS011;31823;47.032;8.310;2022-10-16T07:19:51;6.88;;;1.83;;
46084;SDS011;31823;47.032;8.310;2022-10-16T07:22:18;5.43;;;1.80;;
46084;SDS011;31823;47.032;8.310;2022-10-16T07:24:43;6.78;;;1.83;;
46084;SDS011;31823;47.032;8.310;2022-10-16T07:27:09;5.20;;;1.50;;
46084;SDS011;31823;47.032;8.310;2022-10-16T07:29:35;6.35;;;1.50;;
46084;SDS011;31823;47.032;8.310;2022-10-16T07:32:01;4.85;;;1.48;;
46084;SDS011;31823;47.032;8.310;2022-10-16T07:34:27;4.18;;;1.60;;
46084;SDS011;31823;47.032;8.310;2022-10-16T07:36:52;5.05;;;2.40;;
46084;SDS011;31823;47.032;8.310;2022-10-16T07:39:18;4.43;;;1.45;;
46084;SDS011;31823;47.032;8.310;2022-10-16T07:41:44;5.90;;;1.40;;
46084;SDS011;31823;47.032;8.310;2022-10-16T07:44:10;5.72;;;1.40;;
46084;SDS011;31823;47.032;8.310;2022-10-16T07:46:36;4.97;;;1.20;;
46084;SDS011;31823;47.032;8.310;2022-10-16T07:49:02;6.53;;;1.25;;
46084;SDS011;31823;47.032;8.310;2022-10-16T07:51:28;3.58;;;1.70;;
46084;SDS011;31823;47.032;8.310;2022-10-16T07:53:54;2.13;;;1.33;;
46084;SDS011;31823;47.032;8.310;2022-10-16T07:56:20;4.00;;;1.17;;
46084;SDS011;31823;47.032;8.310;2022-10-16T07:58:46;1.50;;;1.25;;
46084;SDS011;31823;47.032;8.310;2022-10-16T08:01:15;4.03;;;1.30;;
46084;SDS011;31823;47.032;8.310;2022-10-16T08:03:42;4.45;;;1.25;;
46084;SDS011;31823;47.032;8.310;2022-10-16T08:06:09;3.45;;;1.38;;
46084;SDS011;31823;47.032;8.310;2022-10-16T08:08:34;7.82;;;1.55;;
46084;SDS011;31823;47.032;8.310;2022-10-16T08:11:00;2.00;;;1.30;;
46084;SDS011;31823;47.032;8.310;2022-10-16T08:13:28;6.85;;;1.42;;
46084;SDS011;31823;47.032;8.310;2022-10-16T08:15:55;6.43;;;1.50;;
46084;SDS011;31823;47.032;8.310;2022-10-16T08:18:21;8.63;;;1.70;;
46084;SDS011;31823;47.032;8.310;2022-10-16T08:20:47;7.32;;;1.38;;
46084;SDS011;31823;47.032;8.310;2022-10-16T08:23:12;6.78;;;1.50;;
46084;SDS011;31823;47.032;8.310;2022-10-16T08:25:40;2.22;;;1.50;;
46084;SDS011;31823;47.032;8.310;2022-10-16T08:28:07;6.20;;;1.50;;
46084;SDS011;31823;47.032;8.310;2022-10-16T08:30:35;7.00;;;1.58;;
46084;SDS011;31823;47.032;8.310;2022-10-16T08:33:01;8.82;;;1.67;;
46084;SDS011;31823;47.032;8.310;2022-10-16T08:35:27;3.13;;;1.70;;
46084;SDS011;31823;47.032;8.310;2022-10-16T08:37:53;5.50;;;2.08;;
46084;SDS011;31823;47.032;8.310;2022-10-16T08:40:20;4.65;;;1.90;;
46084;SDS011;31823;47.032;8.310;2022-10-16T08:50:39;2.65;;;1.92;;
46084;SDS011;31823;47.032;8.310;2022-10-16T08:53:05;3.03;;;1.67;;
46084;SDS011;31823;47.032;8.310;2022-10-16T08:55:41;2.70;;;1.83;;
46084;SDS011;31823;47.032;8.310;2022-10-16T09:00:41;1.77;;;1.50;;
46084;SDS011;31823;47.032;8.310;2022-10-16T09:06:45;8.02;;;2.00;;
46084;SDS011;31823;47.032;8.310;2022-10-16T09:17:01;9.32;;;1.90;;
46084;SDS011;31823;47.032;8.310;2022-10-16T09:25:41;2.42;;;1.40;;
46084;SDS011;31823;47.032;8.310;2022-10-16T09:28:10;10.68;;;1.52;;
46084;SDS011;31823;47.032;8.310;2022-10-16T09:30:36;1.77;;;1.42;;
46084;SDS011;31823;47.032;8.310;2022-10-16T09:33:04;5.78;;;1.55;;
46084;SDS011;31823;47.032;8.310;2022-10-16T09:35:32;5.72;;;1.63;;
46084;SDS011;31823;47.032;8.310;2022-10-16T09:38:25;6.30;;;1.65;;
46084;SDS011;31823;47.032;8.310;2022-10-16T09:40:53;2.92;;;1.83;;
46084;SDS011;31823;47.032;8.310;2022-10-16T09:46:04;4.68;;;1.55;;
46084;SDS011;31823;47.032;8.310;2022-10-16T09:48:53;3.35;;;1.50;;
46084;SDS011;31823;47.032;8.310;2022-10-16T09:51:30;5.07;;;1.50;;
46084;SDS011;31823;47.032;8.310;2022-10-16T09:54:01;2.30;;;1.58;;
46084;SDS011;31823;47.032;8.310;2022-10-16T09:56:38;4.18;;;1.45;;
46084;SDS011;31823;47.032;8.310;2022-10-16T10:01:42;4.50;;;1.30;;
46084;SDS011;31823;47.032;8.310;2022-10-16T10:04:16;3.77;;;1.97;;
46084;SDS011;31823;47.032;8.310;2022-10-16T10:06:47;2.20;;;1.77;;
46084;SDS011;31823;47.032;8.310;2022-10-16T10:09:25;2.30;;;1.90;;
46084;SDS011;31823;47.032;8.310;2022-10-16T10:17:09;3.83;;;1.63;;
46084;SDS011;31823;47.032;8.310;2022-10-16T10:22:40;4.85;;;1.60;;
46084;SDS011;31823;47.032;8.310;2022-10-16T10:39:04;4.65;;;1.30;;
46084;SDS011;31823;47.032;8.310;2022-10-16T10:46:49;5.57;;;1.33;;
46084;SDS011;31823;47.032;8.310;2022-10-16T10:52:23;1.98;;;1.58;;
46084;SDS011;31823;47.032;8.310;2022-10-16T11:06:20;3.78;;;1.45;;
46084;SDS011;31823;47.032;8.310;2022-10-16T11:09:02;1.65;;;1.55;;
46084;SDS011;31823;47.032;8.310;2022-10-16T11:11:31;2.30;;;1.42;;
46084;SDS011;31823;47.032;8.310;2022-10-16T11:14:53;1.92;;;1.40;;
46084;SDS011;31823;47.032;8.310;2022-10-16T11:17:25;2.75;;;1.52;;
46084;SDS011;31823;47.032;8.310;2022-10-16T11:20:02;6.68;;;1.30;;
46084;SDS011;31823;47.032;8.310;2022-10-16T11:22:30;3.47;;;1.30;;
46084;SDS011;31823;47.032;8.310;2022-10-16T11:33:39;1.35;;;1.25;;
46084;SDS011;31823;47.032;8.310;2022-10-16T11:36:31;0.80;;;0.80;;
46084;SDS011;31823;47.032;8.310;2022-10-16T11:55:36;1.70;;;1.60;;
46084;SDS011;31823;47.032;8.310;2022-10-16T11:58:06;8.23;;;1.20;;
46084;SDS011;31823;47.032;8.310;2022-10-16T12:08:56;3.28;;;1.55;;
46084;SDS011;31823;47.032;8.310;2022-10-16T12:16:38;7.22;;;1.75;;
46084;SDS011;31823;47.032;8.310;2022-10-16T12:19:17;5.28;;;1.70;;
46084;SDS011;31823;47.032;8.310;2022-10-16T12:21:44;6.35;;;1.40;;
46084;SDS011;31823;47.032;8.310;2022-10-16T12:24:19;3.25;;;1.80;;
46084;SDS011;31823;47.032;8.310;2022-10-16T12:27:03;2.63;;;1.50;;
46084;SDS011;31823;47.032;8.310;2022-10-16T12:29:41;4.22;;;1.63;;
46084;SDS011;31823;47.032;8.310;2022-10-16T12:35:04;1.88;;;1.30;;
46084;SDS011;31823;47.032;8.310;2022-10-16T12:37:33;1.30;;;1.20;;
46084;SDS011;31823;47.032;8.310;2022-10-16T12:40:11;5.13;;;1.30;;
46084;SDS011;31823;47.032;8.310;2022-10-16T12:42:40;1.90;;;1.33;;
46084;SDS011;31823;47.032;8.310;2022-10-16T12:45:28;7.97;;;1.90;;
46084;SDS011;31823;47.032;8.310;2022-10-16T12:47:56;5.68;;;1.42;;
46084;SDS011;31823;47.032;8.310;2022-10-16T12:52:49;1.52;;;1.42;;
46084;SDS011;31823;47.032;8.310;2022-10-16T12:55:16;2.00;;;1.27;;
46084;SDS011;31823;47.032;8.310;2022-10-16T13:14:33;3.17;;;1.20;;
46084;SDS011;31823;47.032;8.310;2022-10-16T13:20:00;5.65;;;1.70;;
46084;SDS011;31823;47.032;8.310;2022-10-16T13:25:54;2.28;;;1.00;;
46084;SDS011;31823;47.032;8.310;2022-10-16T13:28:32;4.93;;;1.13;;
46084;SDS011;31823;47.032;8.310;2022-10-16T13:30:59;2.08;;;1.10;;
46084;SDS011;31823;47.032;8.310;2022-10-16T13:35:59;3.60;;;0.95;;
46084;SDS011;31823;47.032;8.310;2022-10-16T13:38:26;3.08;;;1.00;;
46084;SDS011;31823;47.032;8.310;2022-10-16T13:40:58;1.10;;;0.90;;
46084;SDS011;31823;47.032;8.310;2022-10-16T13:46:18;2.55;;;1.00;;
46084;SDS011;31823;47.032;8.310;2022-10-16T13:48:58;1.30;;;1.20;;
46084;SDS011;31823;47.032;8.310;2022-10-16T13:51:29;5.05;;;0.98;;
46084;SDS011;31823;47.032;8.310;2022-10-16T13:53:56;14.15;;;1.20;;
46084;SDS011;31823;47.032;8.310;2022-10-16T13:56:25;1.05;;;0.90;;
46084;SDS011;31823;47.032;8.310;2022-10-16T13:58:59;1.27;;;0.93;;
46084;SDS011;31823;47.032;8.310;2022-10-16T14:01:32;2.45;;;0.90;;
46084;SDS011;31823;47.032;8.310;2022-10-16T14:04:04;3.85;;;1.27;;
46084;SDS011;31823;47.032;8.310;2022-10-16T14:06:32;3.60;;;1.10;;
46084;SDS011;31823;47.032;8.310;2022-10-16T14:09:03;2.45;;;0.80;;
46084;SDS011;31823;47.032;8.310;2022-10-16T14:11:46;7.53;;;1.30;;
46084;SDS011;31823;47.032;8.310;2022-10-16T14:14:16;4.00;;;1.20;;
46084;SDS011;31823;47.032;8.310;2022-10-16T14:16:42;10.93;;;1.55;;
46084;SDS011;31823;47.032;8.310;2022-10-16T14:21:49;2.58;;;1.08;;
46084;SDS011;31823;47.032;8.310;2022-10-16T14:24:49;4.45;;;1.30;;
46084;SDS011;31823;47.032;8.310;2022-10-16T14:27:23;2.38;;;1.00;;
46084;SDS011;31823;47.032;8.310;2022-10-16T14:30:08;9.38;;;1.83;;
46084;SDS011;31823;47.032;8.310;2022-10-16T14:32:40;2.70;;;1.10;;
46084;SDS011;31823;47.032;8.310;2022-10-16T14:35:33;2.88;;;1.00;;
46084;SDS011;31823;47.032;8.310;2022-10-16T14:38:04;4.63;;;1.00;;
46084;SDS011;31823;47.032;8.310;2022-10-16T14:40:35;1.92;;;0.95;;
46084;SDS011;31823;47.032;8.310;2022-10-16T14:43:02;7.35;;;1.30;;
46084;SDS011;31823;47.032;8.310;2022-10-16T14:45:31;6.57;;;1.25;;
46084;SDS011;31823;47.032;8.310;2022-10-16T14:48:03;2.20;;;1.40;;
46084;SDS011;31823;47.032;8.310;2022-10-16T14:50:38;5.75;;;1.30;;
46084;SDS011;31823;47.032;8.310;2022-10-16T14:53:08;4.55;;;1.10;;
46084;SDS011;31823;47.032;8.310;2022-10-16T14:55:38;5.70;;;1.10;;
46084;SDS011;31823;47.032;8.310;2022-10-16T14:58:05;2.75;;;1.38;;
46084;SDS011;31823;47.032;8.310;2022-10-16T15:00:34;5.13;;;1.52;;
46084;SDS011;31823;47.032;8.310;2022-10-16T15:03:00;4.63;;;1.40;;
46084;SDS011;31823;47.032;8.310;2022-10-16T15:05:26;4.32;;;1.38;;
46084;SDS011;31823;47.032;8.310;2022-10-16T15:07:53;3.28;;;1.30;;
46084;SDS011;31823;47.032;8.310;2022-10-16T15:10:23;3.80;;;1.08;;
46084;SDS011;31823;47.032;8.310;2022-10-16T15:12:50;4.07;;;1.95;;
46084;SDS011;31823;47.032;8.310;2022-10-16T15:17:51;8.45;;;1.45;;
46084;SDS011;31823;47.032;8.310;2022-10-16T15:20:20;6.78;;;1.50;;
46084;SDS011;31823;47.032;8.310;2022-10-16T15:22:46;1.80;;;1.27;;
46084;SDS011;31823;47.032;8.310;2022-10-16T15:25:17;4.30;;;1.48;;
46084;SDS011;31823;47.032;8.310;2022-10-16T15:28:00;3.65;;;1.65;;
46084;SDS011;31823;47.032;8.310;2022-10-16T15:30:27;2.10;;;1.50;;
46084;SDS011;31823;47.032;8.310;2022-10-16T15:32:53;3.15;;;1.60;;
46084;SDS011;31823;47.032;8.310;2022-10-16T15:35:19;2.78;;;1.25;;
46084;SDS011;31823;47.032;8.310;2022-10-16T15:37:45;7.72;;;1.80;;
46084;SDS011;31823;47.032;8.310;2022-10-16T15:40:12;6.18;;;1.60;;
46084;SDS011;31823;47.032;8.310;2022-10-16T15:42:38;6.68;;;1.70;;
46084;SDS011;31823;47.032;8.310;2022-10-16T15:45:04;8.02;;;1.80;;
46084;SDS011;31823;47.032;8.310;2022-10-16T15:47:31;6.68;;;2.35;;
46084;SDS011;31823;47.032;8.310;2022-10-16T15:49:57;5.97;;;1.85;;
46084;SDS011;31823;47.032;8.310;2022-10-16T15:52:23;4.68;;;2.00;;
46084;SDS011;31823;47.032;8.310;2022-10-16T15:54:49;7.70;;;2.55;;
46084;SDS011;31823;47.032;8.310;2022-10-16T15:57:14;6.28;;;2.70;;
46084;SDS011;31823;47.032;8.310;2022-10-16T15:59:40;4.35;;;2.10;;
46084;SDS011;31823;47.032;8.310;2022-10-16T16:02:05;6.00;;;2.30;;
46084;SDS011;31823;47.032;8.310;2022-10-16T16:04:33;8.73;;;2.13;;
46084;SDS011;31823;47.032;8.310;2022-10-16T16:06:59;4.93;;;1.80;;
46084;SDS011;31823;47.032;8.310;2022-10-16T16:09:26;7.65;;;1.75;;
46084;SDS011;31823;47.032;8.310;2022-10-16T16:11:54;3.20;;;1.70;;
46084;SDS011;31823;47.032;8.310;2022-10-16T16:14:23;6.15;;;1.60;;
46084;SDS011;31823;47.032;8.310;2022-10-16T16:16:51;4.68;;;2.28;;
46084;SDS011;31823;47.032;8.310;2022-10-16T16:19:16;5.55;;;2.65;;
46084;SDS011;31823;47.032;8.310;2022-10-16T16:21:45;3.40;;;1.95;;
46084;SDS011;31823;47.032;8.310;2022-10-16T16:24:11;6.28;;;1.88;;
46084;SDS011;31823;47.032;8.310;2022-10-16T16:26:37;5.00;;;1.73;;
46084;SDS011;31823;47.032;8.310;2022-10-16T16:29:04;9.70;;;2.50;;
46084;SDS011;31823;47.032;8.310;2022-10-16T16:31:31;7.13;;;2.10;;
46084;SDS011;31823;47.032;8.310;2022-10-16T16:33:58;7.95;;;2.05;;
46084;SDS011;31823;47.032;8.310;2022-10-16T16:36:24;7.50;;;2.40;;
46084;SDS011;31823;47.032;8.310;2022-10-16T16:38:51;4.80;;;2.00;;
46084;SDS011;31823;47.032;8.310;2022-10-16T16:41:17;5.47;;;2.00;;
46084;SDS011;31823;47.032;8.310;2022-10-16T16:43:47;6.60;;;2.00;;
46084;SDS011;31823;47.032;8.310;2022-10-16T16:46:13;12.02;;;2.13;;
46084;SDS011;31823;47.032;8.310;2022-10-16T16:48:40;3.72;;;1.83;;
46084;SDS011;31823;47.032;8.310;2022-10-16T16:51:10;6.43;;;2.15;;
46084;SDS011;31823;47.032;8.310;2022-10-16T16:53:45;22.60;;;2.92;;
46084;SDS011;31823;47.032;8.310;2022-10-16T16:56:11;13.55;;;2.30;;
46084;SDS011;31823;47.032;8.310;2022-10-16T16:58:37;10.43;;;2.83;;
46084;SDS011;31823;47.032;8.310;2022-10-16T17:01:03;6.90;;;2.42;;
46084;SDS011;31823;47.032;8.310;2022-10-16T17:03:31;10.63;;;2.50;;
46084;SDS011;31823;47.032;8.310;2022-10-16T17:06:05;10.85;;;1.80;;
46084;SDS011;31823;47.032;8.310;2022-10-16T17:08:33;8.95;;;2.17;;
46084;SDS011;31823;47.032;8.310;2022-10-16T17:10:59;8.25;;;2.42;;
46084;SDS011;31823;47.032;8.310;2022-10-16T17:13:26;16.33;;;2.25;;
46084;SDS011;31823;47.032;8.310;2022-10-16T17:15:53;6.32;;;2.70;;
46084;SDS011;31823;47.032;8.310;2022-10-16T17:18:20;11.50;;;2.28;;
46084;SDS011;31823;47.032;8.310;2022-10-16T17:20:47;10.65;;;3.17;;
46084;SDS011;31823;47.032;8.310;2022-10-16T17:23:13;11.25;;;2.80;;
46084;SDS011;31823;47.032;8.310;2022-10-16T17:25:40;14.38;;;3.53;;
46084;SDS011;31823;47.032;8.310;2022-10-16T17:28:07;12.88;;;6.20;;
46084;SDS011;31823;47.032;8.310;2022-10-16T17:30:36;12.77;;;2.97;;
46084;SDS011;31823;47.032;8.310;2022-10-16T17:33:02;5.63;;;3.05;;
46084;SDS011;31823;47.032;8.310;2022-10-16T17:35:29;7.65;;;2.30;;
46084;SDS011;31823;47.032;8.310;2022-10-16T17:38:00;8.93;;;2.20;;
46084;SDS011;31823;47.032;8.310;2022-10-16T17:40:26;9.80;;;1.92;;
46084;SDS011;31823;47.032;8.310;2022-10-16T17:42:51;2.50;;;2.05;;
46084;SDS011;31823;47.032;8.310;2022-10-16T17:45:17;6.28;;;2.38;;
46084;SDS011;31823;47.032;8.310;2022-10-16T17:47:43;10.75;;;2.70;;
46084;SDS011;31823;47.032;8.310;2022-10-16T17:50:10;6.43;;;2.35;;